Picayune, MS (39466)

09:57 PM CST die 20o December, anno 2014 (GMT -0600)
Hide_A_Way Lake ~OWX | Change Station
CLOSE
Current Station
Personal Weather Stations
Location: Carriere, MS
Elevation: 100 ft
Nearby Weather Stations

Elev 100 ft 30.58 °N, 89.65 °W | Updated 6 seconds ago

Aequaliter Nubila
Aequaliter Nubila
50.9 °F
Feels Like 50.9 °F
N
0.0
Ventus Variabilis Ventus from Inter Aquilonem et Eurum
Gusts 5.0 mph

Hodie
High -- | Low -- °F
--% Chance of Precip.
Yesterday
High -- | Low -- °F
Precip. -- in
6:51 AM 5:01 PM
Waning Crescent, 1% visible
Pressio 30.15 in
Visibilitas 10.0 milia passuum
Clouds Aequaliter Nubila 1800 ft
Frigus in quo Ros apparet 47 °F
Umor 86%
Rainfall 0.05 in
Snow Depth Not available.
UV 0.0 out of 12
Pollen 2.00 out of 12
Air Quality Not available.
Flu Activity Not available.
METAR KASD 210353Z AUTO 01006KT 10SM OVC018 12/08 A3015 RMK AO2 SLP210 T01170083

More Conditions Fewer Conditions

Pressio 30.15 in
Visibilitas 10.0 milia passuum
Clouds Aequaliter Nubila 1800 ft
Frigus in quo Ros apparet 47 °F
Umor 86%
Rainfall 0.05 in
Snow Depth Not available.
UV 0.0 out of 12
Pollen 2.00 out of 12
Air Quality Not available.
Flu Activity Not available.
METAR KASD 210353Z AUTO 01006KT 10SM OVC018 12/08 A3015 RMK AO2 SLP210 T01170083

More Conditions Fewer Conditions

10-Day Weather Forecast

Almanac

Astronomy

Dec. 20, 2014 Rise Set
Actual Time
Civil Twilight
Nautical Twilight
Astronomical Twilight
Moon
Length Of Visible Light
Length of Day
Tomorrow will be .
, % of the Moon is Illuminated

Today's Extremes

State Highs State Lows

Community

WunderPhotos

Upload Photos

1,779,354 photos uploaded!

WunderBlogs® & News

Nearby

Air Quality

  Air Quality AQ Index Pollutant
Not available.

Snow Depth

Station Depth Elevation

Earthquake Activity

City Distance Mag. Time & Date
Minimum magnitude displayed is 2.5.

Coastal Water Temperatures

Locus Calor

Nearby Weather Stations